Chino Hills, CA (91709)

5:53 PM PDT on July 24, 2016 (GMT -0700)
Canon Lane Station | | Change Station
Active Advisory: Heat Advisory

Elev 1166 ft 33.96 °N, 117.77 °W | Updated 3 minutes ago

Partly Cloudy
Partly Cloudy
91.3 °F
Feels Like 90 °F
N
4.0
Wind Variable Wind from WNW
Gusts 5.0 mph

Today
High -- | Low -- °F
--% Chance of Precip.
Yesterday
High -- | Low -- °F
Precip. -- in
Pressure 29.86 in
Visibility 10.0 miles
Clouds Few 20000 ft
Heat Index 90 °F
Dew Point 57 °F
Humidity 32%
Rainfall 0.00 in
Snow Depth Not available.
5:56 AM 7:57 PM
Waning Gibbous, 71% visible
METAR KCNO 242353Z 27015G20KT 10SM FEW200 36/08 A2988 RMK AO2 SLP110 T03560083 10372 20333 56012
Pressure 29.86 in
Visibility 10.0 miles
Clouds Few 20000 ft
Heat Index 90 °F
Dew Point 57 °F
Humidity 32%
Rainfall 0.00 in
Snow Depth Not available.
5:56 AM 7:57 PM
Waning Gibbous, 71% visible
METAR KCNO 242353Z 27015G20KT 10SM FEW200 36/08 A2988 RMK AO2 SLP110 T03560083 10372 20333 56012

10-Day Weather Forecast

Almanac

Astronomy

Jul. 24, 2016 Rise Set
Actual Time
Civil Twilight
Nautical Twilight
Astronomical Twilight
Moon
Length of Visible Light
Length of Day
Tomorrow will be .
, % of the Moon is Illuminated

Today's Extremes

State Highs State Lows

Community

WunderPhotos

Upload Photos

1,927,218 photos uploaded!

WunderBlog® & News

Nearby

Air Quality

  Air Quality AQ Index Pollutant
Not available.

Snow Depth

Station Depth Elevation

Earthquake Activity

City Distance Mag. Time & Date
Minimum magnitude displayed is 2.5.

Coastal Water Temperatures

Place Temperature

Stations

Nearby Weather Stations

Station Location Temp. Windchill Dew Point Humidity Wind Precip. Elev Updated Type
                   

Watches & Warnings

Heat Advisory
Issued: 1:31 PM PDT Jul. 24, 2016 – National Weather Service

... Heat advisory remains in effect until 8 PM PDT this evening...

* high temperatures today...

Inland Empire... ... ... ... ... ... .93 to 103.

San Diego County inland valleys... 90 to 94.

Lower deserts... ... ... ... ... ... .104 to 110.

Upper deserts... ... ... ... ... ... ..98 to 107.

Mountains below 5000 feet... ... ... 88 to 98.

* Impacts... over exposure to heat could lead to heat illness
especially for people at risk... including the elderly and
children. Pets are also at risk. Remember to check your
backseat for people and pets!!

Precautionary/preparedness actions...

Take extra precautions if you work or spend time outside. When
possible... reschedule strenuous activities to early morning or
evening. Know the signs and symptoms of heat exhaustion and heat
stroke. Wear light weight and loose fitting clothing when
possible and drink plenty of water.

To reduce risk during outdoor work the occupational safety and
health administration recommends scheduling frequent rest breaks
in shaded or air conditioned environments. Anyone overcome by
heat should be moved to a cool and shaded location. Heat stroke
is an emergency - call 9 1 1.



Sgx